createdAt,value
2018-07-28T00:01:06.179Z,20.57
2018-07-28T00:03:34.201Z,20.55
2018-07-28T00:06:01.880Z,20.53
2018-07-28T00:08:29.586Z,20.51
2018-07-28T00:10:57.560Z,20.48
2018-07-28T00:13:25.172Z,20.47
2018-07-28T00:15:52.837Z,20.46
2018-07-28T00:18:20.681Z,20.45
2018-07-28T00:20:48.260Z,20.45
2018-07-28T00:23:15.908Z,20.44
2018-07-28T00:25:49.414Z,20.43
2018-07-28T00:28:17.338Z,20.42
2018-07-28T00:30:44.999Z,20.40
2018-07-28T00:33:12.815Z,20.38
2018-07-28T00:35:40.471Z,20.38
2018-07-28T00:38:08.114Z,20.37
2018-07-28T00:40:35.901Z,20.37
2018-07-28T00:43:03.832Z,20.37
2018-07-28T00:45:31.466Z,20.36
2018-07-28T00:47:59.347Z,20.35
2018-07-28T00:50:27.200Z,20.33
2018-07-28T00:52:54.827Z,20.34
2018-07-28T00:55:22.572Z,20.34
2018-07-28T00:57:50.393Z,20.35
2018-07-28T01:00:18.003Z,20.27
2018-07-28T01:02:45.905Z,20.36
2018-07-28T01:05:13.692Z,20.35
2018-07-28T01:07:41.316Z,20.33
2018-07-28T01:10:09.318Z,20.31
2018-07-28T01:12:37.243Z,20.30
2018-07-28T01:15:07.698Z,20.27
2018-07-28T01:17:35.558Z,20.27
2018-07-28T01:20:03.665Z,20.25
2018-07-28T01:22:31.433Z,20.24
2018-07-28T01:24:59.143Z,20.23
2018-07-28T01:27:27.023Z,20.23
2018-07-28T01:29:54.684Z,20.21
2018-07-28T01:32:22.475Z,20.20
2018-07-28T01:34:50.171Z,20.23
2018-07-28T01:37:17.786Z,20.23
2018-07-28T01:39:45.545Z,20.22
2018-07-28T01:42:13.646Z,20.22
2018-07-28T01:44:41.326Z,20.19
2018-07-28T01:47:09.162Z,20.17
2018-07-28T01:49:36.867Z,20.16
2018-07-28T01:52:04.608Z,20.15
2018-07-28T01:54:32.475Z,20.13
2018-07-28T01:57:00.268Z,20.13
2018-07-28T01:59:27.882Z,20.13
2018-07-28T02:01:55.702Z,20.13
2018-07-28T02:04:23.614Z,20.15
2018-07-28T02:06:51.194Z,20.16
2018-07-28T02:09:18.940Z,20.16
2018-07-28T02:11:46.910Z,20.16
2018-07-28T02:14:14.523Z,20.15
2018-07-28T02:16:42.239Z,20.14
2018-07-28T02:19:10.066Z,20.14
2018-07-28T02:21:37.660Z,20.14
2018-07-28T02:24:05.464Z,20.12
2018-07-28T02:26:33.289Z,20.11
2018-07-28T02:29:00.918Z,20.09
2018-07-28T02:31:28.723Z,20.08
2018-07-28T02:33:56.609Z,20.07
2018-07-28T02:36:24.258Z,20.07
2018-07-28T02:38:52.157Z,20.06
2018-07-28T02:41:19.910Z,20.07
2018-07-28T02:43:47.523Z,20.08
2018-07-28T02:46:15.174Z,20.08
2018-07-28T02:48:42.960Z,20.07
2018-07-28T02:51:10.596Z,20.08
2018-07-28T02:53:42.827Z,20.06
2018-07-28T02:56:10.577Z,20.06
2018-07-28T02:58:38.149Z,20.06
2018-07-28T03:01:06.293Z,20.05
2018-07-28T03:03:34.127Z,20.04
2018-07-28T03:06:01.798Z,20.03
2018-07-28T03:08:29.653Z,20.04
2018-07-28T03:10:57.356Z,20.05
2018-07-28T03:13:25.001Z,20.08
2018-07-28T03:15:52.732Z,20.10
2018-07-28T03:18:20.504Z,20.11
2018-07-28T03:20:48.090Z,20.14
2018-07-28T03:23:15.928Z,20.16
2018-07-28T03:25:43.785Z,20.18
2018-07-28T03:28:11.409Z,20.22
2018-07-28T03:30:39.249Z,20.22
2018-07-28T03:33:07.071Z,20.25
2018-07-28T03:35:34.691Z,20.27
2018-07-28T03:38:02.426Z,20.30
2018-07-28T03:40:30.360Z,20.31
2018-07-28T03:42:57.977Z,20.34
2018-07-28T03:45:25.752Z,20.37
2018-07-28T03:47:53.495Z,20.40
2018-07-28T03:50:21.198Z,20.43
2018-07-28T03:52:49.058Z,20.46
2018-07-28T03:55:16.786Z,20.49
2018-07-28T03:57:44.403Z,20.51
2018-07-28T04:00:12.690Z,20.54
2018-07-28T04:02:40.559Z,20.54
2018-07-28T04:05:09.894Z,20.58
2018-07-28T04:10:36.005Z,20.65
2018-07-28T04:13:03.625Z,20.67
2018-07-28T04:15:31.528Z,20.71
2018-07-28T04:17:59.291Z,20.75
2018-07-28T04:20:27.341Z,20.80
2018-07-28T04:22:55.417Z,20.86
2018-07-28T04:25:23.375Z,20.93
2018-07-28T04:27:51.383Z,21.00
2018-07-28T04:30:19.334Z,21.09
2018-07-28T04:32:47.223Z,21.19
2018-07-28T04:35:14.801Z,21.28
2018-07-28T04:37:42.777Z,21.37
2018-07-28T04:40:11.091Z,21.44
2018-07-28T04:42:39.292Z,21.54
2018-07-28T04:45:07.533Z,21.63
2018-07-28T04:47:35.349Z,21.62
2018-07-28T04:50:03.054Z,21.80
2018-07-28T04:52:30.811Z,21.88
2018-07-28T04:54:58.581Z,21.98
2018-07-28T04:57:26.487Z,22.04
2018-07-28T04:59:55.038Z,22.09
2018-07-28T05:02:24.494Z,22.18
2018-07-28T05:04:52.547Z,22.24
2018-07-28T05:07:20.395Z,22.31
2018-07-28T05:09:48.206Z,22.35
2018-07-28T05:12:15.852Z,22.40
2018-07-28T05:14:43.681Z,22.46
2018-07-28T05:17:11.531Z,22.51
2018-07-28T05:19:39.134Z,22.56
2018-07-28T05:22:07.120Z,22.61
2018-07-28T05:24:35.109Z,22.66
2018-07-28T05:27:02.654Z,22.73
2018-07-28T05:29:30.809Z,22.80
2018-07-28T05:31:58.576Z,22.83
2018-07-28T05:34:26.103Z,22.88
2018-07-28T05:36:53.762Z,22.93
2018-07-28T05:39:21.642Z,22.99
2018-07-28T05:41:49.291Z,23.03
2018-07-28T05:44:16.853Z,23.08
2018-07-28T05:46:44.773Z,23.12
2018-07-28T05:49:12.386Z,23.16
2018-07-28T05:51:40.241Z,23.20
2018-07-28T05:54:07.945Z,23.22
2018-07-28T05:56:35.603Z,23.25
2018-07-28T05:59:03.534Z,23.27
2018-07-28T06:01:31.438Z,23.30
2018-07-28T06:03:59.064Z,23.30
2018-07-28T06:06:26.743Z,23.30
2018-07-28T06:08:54.556Z,23.32
2018-07-28T06:11:22.208Z,23.33
2018-07-28T06:13:49.831Z,23.36
2018-07-28T06:16:17.726Z,23.38
2018-07-28T06:18:45.546Z,23.41
2018-07-28T06:21:13.331Z,23.43
2018-07-28T06:23:41.158Z,23.46
2018-07-28T06:26:09.012Z,23.47
2018-07-28T06:28:36.692Z,23.48
2018-07-28T06:31:04.483Z,23.50
2018-07-28T06:33:32.034Z,23.51
2018-07-28T06:35:59.893Z,23.52
2018-07-28T06:38:27.621Z,23.53
2018-07-28T06:40:55.167Z,23.56
2018-07-28T06:43:22.907Z,23.59
2018-07-28T06:45:50.649Z,23.63
2018-07-28T06:48:18.195Z,23.68
2018-07-28T06:50:45.923Z,23.74
2018-07-28T06:53:13.725Z,23.80
2018-07-28T06:55:41.368Z,23.85
2018-07-28T06:58:09.108Z,23.89
2018-07-28T07:00:36.829Z,23.92
2018-07-28T07:03:04.361Z,23.93
2018-07-28T07:05:32.220Z,23.94
2018-07-28T07:08:00.052Z,23.96
2018-07-28T07:10:27.589Z,23.96
2018-07-28T07:12:55.377Z,23.97
2018-07-28T07:15:23.264Z,24.00
2018-07-28T07:17:50.779Z,24.06
2018-07-28T07:20:18.571Z,24.12
2018-07-28T07:22:46.463Z,24.17
2018-07-28T07:25:14.030Z,24.22
2018-07-28T07:27:41.715Z,24.26
2018-07-28T07:30:09.430Z,24.27
2018-07-28T07:32:37.021Z,24.28
2018-07-28T07:35:04.690Z,24.30
2018-07-28T07:37:32.456Z,24.30
2018-07-28T07:40:00.016Z,24.30
2018-07-28T07:42:27.743Z,24.28
2018-07-28T07:44:55.586Z,24.29
2018-07-28T07:47:23.250Z,24.31
2018-07-28T07:49:50.787Z,24.36
2018-07-28T07:52:18.499Z,24.38
2018-07-28T07:54:46.115Z,24.42
2018-07-28T07:57:13.748Z,24.45
2018-07-28T07:59:41.593Z,24.47
2018-07-28T08:02:09.214Z,24.47
2018-07-28T08:04:36.939Z,24.48
2018-07-28T08:07:04.742Z,24.51
2018-07-28T08:09:32.361Z,24.56
2018-07-28T08:12:00.128Z,24.61
2018-07-28T08:14:27.790Z,24.66
2018-07-28T08:16:55.370Z,24.71
2018-07-28T08:20:26.192Z,24.74
2018-07-28T08:22:53.847Z,24.80
2018-07-28T08:25:21.501Z,24.84
2018-07-28T08:27:49.387Z,24.90
2018-07-28T08:30:16.955Z,24.95
2018-07-28T08:32:44.608Z,25.01
2018-07-28T08:35:12.617Z,25.07
2018-07-28T08:37:40.249Z,25.14
2018-07-28T08:40:07.970Z,25.21
2018-07-28T08:42:35.749Z,25.27
2018-07-28T08:45:03.646Z,25.33
2018-07-28T08:47:31.254Z,25.38
2018-07-28T08:49:59.242Z,25.44
2018-07-28T08:52:26.842Z,25.49
2018-07-28T08:54:54.397Z,25.55
2018-07-28T08:57:22.207Z,25.62
2018-07-28T08:59:49.814Z,25.70
2018-07-28T09:02:17.411Z,25.76
2018-07-28T09:04:45.301Z,25.81
2018-07-28T09:07:12.871Z,25.88
2018-07-28T09:09:40.556Z,25.95
2018-07-28T09:12:08.544Z,26.03
2018-07-28T09:14:36.157Z,26.10
2018-07-28T09:17:03.776Z,26.15
2018-07-28T09:19:31.602Z,26.21
2018-07-28T09:21:59.204Z,26.29
2018-07-28T09:24:26.829Z,26.36
2018-07-28T09:26:54.696Z,26.44
2018-07-28T09:29:22.284Z,26.51
2018-07-28T09:31:49.961Z,26.56
2018-07-28T09:34:17.700Z,26.62
2018-07-28T09:36:45.286Z,26.70
2018-07-28T09:39:12.923Z,26.77
2018-07-28T09:41:41.116Z,26.86
2018-07-28T09:44:08.698Z,26.98
2018-07-28T09:46:36.592Z,27.09
2018-07-28T09:49:04.695Z,27.19
2018-07-28T09:51:32.221Z,27.33
2018-07-28T09:53:59.771Z,27.48
2018-07-28T09:56:27.662Z,27.64
2018-07-28T09:58:55.205Z,27.79
2018-07-28T10:01:23.578Z,27.97
2018-07-28T10:03:52.044Z,28.12
2018-07-28T10:06:19.590Z,28.24
2018-07-28T10:08:47.159Z,28.35
2018-07-28T10:11:14.982Z,28.47
2018-07-28T10:13:42.482Z,28.61
2018-07-28T10:16:10.136Z,28.72
2018-07-28T10:18:37.973Z,28.82
2018-07-28T10:21:05.571Z,28.90
2018-07-28T10:23:33.362Z,28.96
2018-07-28T10:26:01.292Z,29.02
2018-07-28T10:28:28.918Z,29.08
2018-07-28T10:30:56.489Z,29.12
2018-07-28T10:33:24.264Z,29.19
2018-07-28T10:35:51.966Z,29.24
2018-07-28T10:38:19.798Z,29.25
2018-07-28T10:40:48.076Z,29.28
2018-07-28T10:43:15.664Z,29.33
2018-07-28T10:45:43.422Z,29.40
2018-07-28T10:48:11.288Z,29.49
2018-07-28T10:50:38.880Z,29.61
2018-07-28T10:53:06.420Z,29.70
2018-07-28T10:55:34.405Z,29.79
2018-07-28T10:58:01.952Z,29.89
2018-07-28T11:00:29.628Z,29.95
2018-07-28T11:02:57.534Z,29.94
2018-07-28T11:05:25.294Z,29.90
2018-07-28T11:07:52.995Z,29.90
2018-07-28T11:10:20.976Z,29.90
2018-07-28T11:12:48.551Z,29.92
2018-07-28T11:15:16.186Z,29.94
2018-07-28T11:17:43.963Z,29.97
2018-07-28T11:20:11.783Z,30.01
2018-07-28T11:22:39.385Z,30.08
2018-07-28T11:25:07.869Z,30.14
2018-07-28T11:27:36.120Z,30.22
2018-07-28T11:30:04.343Z,30.28
2018-07-28T11:32:43.487Z,30.33
2018-07-28T11:35:22.201Z,30.39
2018-07-28T11:38:33.987Z,30.45
2018-07-28T11:41:13.117Z,30.50
2018-07-28T11:43:52.360Z,30.57
2018-07-28T11:46:19.948Z,30.64
2018-07-28T11:48:47.528Z,30.73
2018-07-28T11:51:15.332Z,30.79
2018-07-28T11:53:42.902Z,30.83
2018-07-28T11:56:10.418Z,30.87
2018-07-28T11:58:38.255Z,30.91
2018-07-28T12:01:05.858Z,30.94
2018-07-28T12:03:33.545Z,30.98
2018-07-28T12:06:01.435Z,31.03
2018-07-28T12:08:29.032Z,31.09
2018-07-28T12:10:56.583Z,31.15
2018-07-28T12:13:24.503Z,31.18
2018-07-28T12:15:52.087Z,31.18
2018-07-28T12:18:19.714Z,31.19
2018-07-28T12:20:47.460Z,31.22
2018-07-28T12:23:15.121Z,31.23
2018-07-28T12:25:42.844Z,31.17
2018-07-28T12:28:10.802Z,31.13
2018-07-28T12:30:38.454Z,31.08
2018-07-28T12:33:06.044Z,31.05
2018-07-28T12:35:33.933Z,31.00
2018-07-28T12:38:01.580Z,30.89
2018-07-28T12:40:29.124Z,30.86
2018-07-28T12:42:56.984Z,30.87
2018-07-28T12:45:24.570Z,30.93
2018-07-28T12:47:52.126Z,30.98
2018-07-28T12:50:20.005Z,31.07
2018-07-28T12:52:47.622Z,31.14
2018-07-28T12:55:15.185Z,31.20
2018-07-28T12:57:43.144Z,31.24
2018-07-28T13:00:10.712Z,31.25
2018-07-28T13:02:38.254Z,31.25
2018-07-28T13:05:06.798Z,31.22
2018-07-28T13:07:34.409Z,31.23
2018-07-28T13:10:02.017Z,31.23
2018-07-28T13:12:30.083Z,31.24
2018-07-28T13:14:57.644Z,31.25
2018-07-28T13:17:25.337Z,31.23
2018-07-28T13:19:53.035Z,31.19
2018-07-28T13:22:20.797Z,31.15
2018-07-28T13:24:48.350Z,31.10
2018-07-28T13:27:16.224Z,31.07
2018-07-28T13:29:43.801Z,31.02
2018-07-28T13:32:11.336Z,30.93
2018-07-28T13:34:39.252Z,30.81
2018-07-28T13:37:06.873Z,30.67
2018-07-28T13:39:34.379Z,30.49
2018-07-28T13:42:02.347Z,30.37
2018-07-28T13:44:29.984Z,30.24
2018-07-28T13:46:57.545Z,30.15
2018-07-28T13:49:25.234Z,30.08
2018-07-28T13:51:52.829Z,30.02
2018-07-28T13:54:20.345Z,29.95
2018-07-28T13:56:48.348Z,29.87
2018-07-28T13:59:15.943Z,29.79
2018-07-28T14:01:43.455Z,29.71
2018-07-28T14:04:11.228Z,29.63
2018-07-28T14:06:38.827Z,29.54
2018-07-28T14:09:08.171Z,29.48
2018-07-28T14:11:36.244Z,29.40
2018-07-28T14:14:03.831Z,29.33
2018-07-28T14:16:31.377Z,29.28
2018-07-28T14:18:59.122Z,29.24
2018-07-28T14:21:26.729Z,29.15
2018-07-28T14:23:54.299Z,29.06
2018-07-28T14:26:22.115Z,28.99
2018-07-28T14:28:49.695Z,28.90
2018-07-28T14:31:17.299Z,28.82
2018-07-28T14:33:45.339Z,28.76
2018-07-28T14:36:12.885Z,28.72
2018-07-28T14:38:40.488Z,28.72
2018-07-28T14:41:08.341Z,28.73
2018-07-28T14:43:35.914Z,28.75
2018-07-28T14:46:03.571Z,28.75
2018-07-28T14:48:31.669Z,28.72
2018-07-28T14:50:59.227Z,28.69
2018-07-28T14:53:26.753Z,28.65
2018-07-28T14:55:54.681Z,28.64
2018-07-28T14:58:22.215Z,28.64
2018-07-28T15:00:49.806Z,28.65
2018-07-28T15:03:17.809Z,28.63
2018-07-28T15:05:45.378Z,28.61
2018-07-28T15:08:12.997Z,28.60
2018-07-28T15:10:40.724Z,28.61
2018-07-28T15:13:08.261Z,28.61
2018-07-28T15:15:36.169Z,28.59
2018-07-28T15:18:04.038Z,28.57
2018-07-28T15:20:31.568Z,28.56
2018-07-28T15:22:59.283Z,28.58
2018-07-28T15:25:26.986Z,28.55
2018-07-28T15:27:54.561Z,28.51
2018-07-28T15:30:22.471Z,28.46
2018-07-28T15:32:50.196Z,28.43
2018-07-28T15:35:17.861Z,28.39
2018-07-28T15:37:52.509Z,28.39
2018-07-28T15:40:20.125Z,28.41
2018-07-28T15:42:47.716Z,28.41
2018-07-28T15:45:15.516Z,28.43
2018-07-28T15:47:43.135Z,28.50
2018-07-28T15:50:10.709Z,28.57
2018-07-28T15:52:38.399Z,28.59
2018-07-28T15:55:06.124Z,28.63
2018-07-28T15:57:33.699Z,28.65
2018-07-28T16:00:01.612Z,28.67
2018-07-28T16:02:29.226Z,28.69
2018-07-28T16:04:57.040Z,28.75
2018-07-28T16:07:25.018Z,28.76
2018-07-28T16:09:52.777Z,28.73
2018-07-28T16:12:20.326Z,28.68
2018-07-28T16:14:48.477Z,28.59
2018-07-28T16:17:16.081Z,28.55
2018-07-28T16:19:43.642Z,28.48
2018-07-28T16:22:11.760Z,28.39
2018-07-28T16:24:39.319Z,28.28
2018-07-28T16:27:06.858Z,28.16
2018-07-28T16:29:34.885Z,28.06
2018-07-28T16:32:02.482Z,27.97
2018-07-28T16:34:30.878Z,27.90
2018-07-28T16:36:59.192Z,27.81
2018-07-28T16:39:26.698Z,27.76
2018-07-28T16:41:54.314Z,27.72
2018-07-28T16:44:22.325Z,27.67
2018-07-28T16:46:49.851Z,27.63
2018-07-28T16:49:17.448Z,27.58
2018-07-28T16:51:45.408Z,27.51
2018-07-28T16:54:13.014Z,27.42
2018-07-28T16:56:40.569Z,27.37
2018-07-28T16:59:08.633Z,27.29
2018-07-28T17:01:36.253Z,27.23
2018-07-28T17:04:03.799Z,27.18
2018-07-28T17:06:32.078Z,27.16
2018-07-28T17:08:59.632Z,27.11
2018-07-28T17:11:27.232Z,27.06
2018-07-28T17:13:55.387Z,27.01
2018-07-28T17:16:22.948Z,26.94
2018-07-28T17:18:50.490Z,26.89
2018-07-28T17:21:18.494Z,26.85
2018-07-28T17:23:46.052Z,26.79
2018-07-28T17:26:13.690Z,26.74
2018-07-28T17:28:41.659Z,26.70
2018-07-28T17:31:09.296Z,26.67
2018-07-28T17:33:36.852Z,26.62
2018-07-28T17:36:04.870Z,26.56
2018-07-28T17:38:32.426Z,26.52
2018-07-28T17:41:00.158Z,26.46
2018-07-28T17:43:27.924Z,26.43
2018-07-28T17:45:55.567Z,26.36
2018-07-28T17:48:23.106Z,26.32
2018-07-28T17:50:51.126Z,26.28
2018-07-28T17:53:18.834Z,26.23
2018-07-28T17:55:46.388Z,26.20
2018-07-28T17:58:14.181Z,26.17
2018-07-28T18:00:41.798Z,26.14
2018-07-28T18:03:09.394Z,26.08
2018-07-28T18:05:37.232Z,26.05
2018-07-28T18:08:04.878Z,26.01
2018-07-28T18:13:07.002Z,25.89
2018-07-28T18:15:34.525Z,25.83
2018-07-28T18:18:02.324Z,25.81
2018-07-28T18:20:30.248Z,25.76
2018-07-28T18:22:57.847Z,25.73
2018-07-28T18:25:25.584Z,25.66
2018-07-28T18:27:53.348Z,25.59
2018-07-28T18:30:20.920Z,25.56
2018-07-28T18:32:48.598Z,25.51
2018-07-28T18:35:16.271Z,25.46
2018-07-28T18:38:46.719Z,25.41
2018-07-28T18:41:14.605Z,25.32
2018-07-28T18:43:42.194Z,25.28
2018-07-28T18:46:09.910Z,25.24
2018-07-28T18:48:37.724Z,25.21
2018-07-28T18:51:05.239Z,25.15
2018-07-28T18:53:32.940Z,25.10
2018-07-28T18:56:00.763Z,25.07
2018-07-28T18:58:28.418Z,25.00
2018-07-28T19:00:56.286Z,24.93
2018-07-28T19:03:23.995Z,24.87
2018-07-28T19:05:51.663Z,24.82
2018-07-28T19:08:19.765Z,24.76
2018-07-28T19:10:47.655Z,24.72
2018-07-28T19:13:20.907Z,24.68
2018-07-28T19:15:48.685Z,24.64
2018-07-28T19:18:21.756Z,24.61
2018-07-28T19:20:49.706Z,24.58
2018-07-28T19:23:23.033Z,24.55
2018-07-28T19:25:50.797Z,24.50
2018-07-28T19:28:24.221Z,24.45
2018-07-28T19:30:51.965Z,24.39
2018-07-28T19:33:19.566Z,24.37
2018-07-28T19:35:52.777Z,24.33
2018-07-28T19:38:20.588Z,24.28
2018-07-28T19:40:48.164Z,24.24
2018-07-28T19:43:15.921Z,24.19
2018-07-28T19:45:43.548Z,24.15
2018-07-28T19:48:11.120Z,24.12
2018-07-28T19:50:38.870Z,24.08
2018-07-28T19:53:06.614Z,24.04
2018-07-28T19:55:34.202Z,23.99
2018-07-28T19:58:02.022Z,23.94
2018-07-28T20:00:29.800Z,23.89
2018-07-28T20:02:57.347Z,23.87
2018-07-28T20:05:25.444Z,23.85
2018-07-28T20:07:53.192Z,23.81
2018-07-28T20:10:20.765Z,23.79
2018-07-28T20:12:48.603Z,23.76
2018-07-28T20:15:16.255Z,23.73
2018-07-28T20:17:44.703Z,23.71
2018-07-28T20:20:12.832Z,23.68
2018-07-28T20:22:40.576Z,23.65
2018-07-28T20:25:08.150Z,23.62
2018-07-28T20:27:36.005Z,23.61
2018-07-28T20:30:04.289Z,23.57
2018-07-28T20:32:31.858Z,23.57
2018-07-28T20:34:59.639Z,23.56
2018-07-28T20:37:27.332Z,23.54
2018-07-28T20:39:54.922Z,23.42
2018-07-28T20:42:22.646Z,23.48
2018-07-28T20:44:50.264Z,23.46
2018-07-28T20:47:17.870Z,23.44
2018-07-28T20:49:46.004Z,23.42
2018-07-28T20:52:13.681Z,23.40
2018-07-28T20:54:41.288Z,23.36
2018-07-28T20:57:09.219Z,23.33
2018-07-28T20:59:36.876Z,23.30
2018-07-28T21:02:04.525Z,23.27
2018-07-28T21:04:32.191Z,23.25
2018-07-28T21:07:00.052Z,23.22
2018-07-28T21:09:27.648Z,23.20
2018-07-28T21:11:55.418Z,23.19
2018-07-28T21:14:23.051Z,23.17
2018-07-28T21:16:50.694Z,23.15
2018-07-28T21:19:18.342Z,23.15
2018-07-28T21:21:46.205Z,23.15
2018-07-28T21:24:13.804Z,23.12
2018-07-28T21:26:41.511Z,23.10
2018-07-28T21:29:09.274Z,23.07
2018-07-28T21:31:36.758Z,23.04
2018-07-28T21:34:04.539Z,23.01
2018-07-28T21:36:32.295Z,22.99
2018-07-28T21:38:59.833Z,22.97
2018-07-28T21:41:27.622Z,22.95
2018-07-28T21:43:55.411Z,22.94
2018-07-28T21:46:23.000Z,22.91
2018-07-28T21:48:50.827Z,22.88
2018-07-28T21:51:18.439Z,22.85
2018-07-28T21:53:46.084Z,22.84
2018-07-28T21:56:13.806Z,22.83
2018-07-28T21:58:41.525Z,22.82
2018-07-28T22:01:18.937Z,22.79
2018-07-28T22:03:46.804Z,22.77
2018-07-28T22:06:14.519Z,22.73
2018-07-28T22:08:42.730Z,22.72
2018-07-28T22:11:10.385Z,22.69
2018-07-28T22:13:38.025Z,22.68
2018-07-28T22:16:05.930Z,22.66
2018-07-28T22:18:33.737Z,22.61
2018-07-28T22:21:01.389Z,22.58
2018-07-28T22:23:29.161Z,22.56
2018-07-28T22:25:57.014Z,22.54
2018-07-28T22:28:24.584Z,22.53
2018-07-28T22:30:52.255Z,22.51
2018-07-28T22:33:19.915Z,22.49
2018-07-28T22:35:47.432Z,22.47
2018-07-28T22:38:15.052Z,22.46
2018-07-28T22:40:42.783Z,22.46
2018-07-28T22:43:10.427Z,22.44
2018-07-28T22:45:38.119Z,22.43
2018-07-28T22:48:06.102Z,22.42
2018-07-28T22:50:33.764Z,22.40
2018-07-28T22:53:01.471Z,22.39
2018-07-28T22:55:29.188Z,22.39
2018-07-28T22:57:56.770Z,22.39
2018-07-28T23:00:24.451Z,22.36
2018-07-28T23:02:52.211Z,22.36
2018-07-28T23:05:19.812Z,22.35
2018-07-28T23:07:47.504Z,22.34
2018-07-28T23:10:15.404Z,22.34
2018-07-28T23:12:42.930Z,22.34
2018-07-28T23:15:10.692Z,22.32
2018-07-28T23:17:38.507Z,22.30
2018-07-28T23:20:06.320Z,22.28
2018-07-28T23:22:34.150Z,22.28
2018-07-28T23:25:02.013Z,22.27
2018-07-28T23:27:29.732Z,22.24
2018-07-28T23:29:57.384Z,22.23
2018-07-28T23:32:25.145Z,22.22
2018-07-28T23:34:52.712Z,22.19
2018-07-28T23:37:20.626Z,22.18
2018-07-28T23:39:48.526Z,22.18
2018-07-28T23:42:16.121Z,22.15
2018-07-28T23:44:43.866Z,22.15
2018-07-28T23:47:11.555Z,22.12
2018-07-28T23:49:39.164Z,22.06
2018-07-28T23:52:07.023Z,22.03
2018-07-28T23:54:34.813Z,22.01
2018-07-28T23:57:02.459Z,21.99
2018-07-28T23:59:30.073Z,21.99
